Main page
METAR-TAF:

METAR-TAF

Airports :

Carmi Municipal Airport

Carmi, Illinois, United States

latitude: 38-05-22N, longitude: 088-07-23W, elevation: 387 ft

Current weather observation

The report was made 32 minutes ago, at 11:15 UTC
Wind 7 mph from the North
Temperature 34°F
Humidity 86%
Pressure 30.15 in. Hg
Visibility: 10 miles
Overcast at a height of 7500 ft

METAR: KCUL 231115Z AUTO 36006KT 10SM OVC075 01/M01 A3015 RMK AO2

Time: 05:47 (11:47 UTC)


TAF: missing

Weather observations and forecasts of more than 4000 airports (METAR and TAF reports).

The available stations are represented by yellow and red dots on the map.

Hover mouse over dot to see the name of the station.

Then click to see weather observations and forecasts.

To change the map : click on the green buttons with a black cross to zoom in, on the green button with a dash to zoom out, or on the green arrows for adjacent maps.


METAR-TAF: